sensor_id;sensor_type;location;lat;lon;timestamp;P1;durP1;ratioP1;P2;durP2;ratioP2
21084;SDS011;34247;50.064;19.970;2023-05-10T01:41:52;5.97;;;2.17;;
21084;SDS011;34247;50.064;19.970;2023-05-10T01:43:01;3.90;;;2.15;;
21084;SDS011;34247;50.064;19.970;2023-05-10T01:44:16;2.88;;;2.47;;
21084;SDS011;34247;50.064;19.970;2023-05-10T01:45:37;3.97;;;2.17;;
21084;SDS011;34247;50.064;19.970;2023-05-10T01:47:20;1.70;;;1.48;;
21084;SDS011;34247;50.064;19.970;2023-05-10T01:48:51;1.65;;;1.55;;
21084;SDS011;34247;50.064;19.970;2023-05-10T01:49:59;3.50;;;2.00;;
21084;SDS011;34247;50.064;19.970;2023-05-10T01:51:07;3.55;;;2.33;;
21084;SDS011;34247;50.064;19.970;2023-05-10T01:52:15;2.15;;;1.98;;
21084;SDS011;34247;50.064;19.970;2023-05-10T01:53:23;2.38;;;2.17;;
21084;SDS011;34247;50.064;19.970;2023-05-10T01:54:28;2.72;;;1.70;;
21084;SDS011;34247;50.064;19.970;2023-05-10T01:55:35;2.00;;;1.90;;
21084;SDS011;34247;50.064;19.970;2023-05-10T01:56:52;3.80;;;1.75;;
21084;SDS011;34247;50.064;19.970;2023-05-10T01:58:08;3.65;;;2.70;;
21084;SDS011;34247;50.064;19.970;2023-05-10T01:59:21;3.60;;;1.63;;
21084;SDS011;34247;50.064;19.970;2023-05-10T02:00:33;1.92;;;1.67;;
21084;SDS011;34247;50.064;19.970;2023-05-10T02:01:38;3.42;;;2.42;;
21084;SDS011;34247;50.064;19.970;2023-05-10T02:02:45;4.15;;;1.88;;
21084;SDS011;34247;50.064;19.970;2023-05-10T02:03:52;2.08;;;1.80;;
21084;SDS011;34247;50.064;19.970;2023-05-10T02:04:59;3.30;;;2.45;;
21084;SDS011;34247;50.064;19.970;2023-05-10T02:06:10;5.78;;;2.15;;
21084;SDS011;34247;50.064;19.970;2023-05-10T02:07:17;1.83;;;1.73;;
21084;SDS011;34247;50.064;19.970;2023-05-10T02:08:24;3.58;;;1.90;;
21084;SDS011;34247;50.064;19.970;2023-05-10T02:09:29;2.97;;;1.98;;
21084;SDS011;34247;50.064;19.970;2023-05-10T02:10:38;2.20;;;1.95;;
21084;SDS011;34247;50.064;19.970;2023-05-10T02:11:44;3.13;;;2.83;;
21084;SDS011;34247;50.064;19.970;2023-05-10T02:12:50;3.17;;;1.90;;
21084;SDS011;34247;50.064;19.970;2023-05-10T02:13:58;3.72;;;1.88;;
21084;SDS011;34247;50.064;19.970;2023-05-10T02:15:04;2.58;;;2.40;;
21084;SDS011;34247;50.064;19.970;2023-05-10T02:16:14;1.58;;;1.48;;
21084;SDS011;34247;50.064;19.970;2023-05-10T02:17:21;5.57;;;3.95;;
21084;SDS011;34247;50.064;19.970;2023-05-10T02:18:28;3.17;;;2.22;;
21084;SDS011;34247;50.064;19.970;2023-05-10T02:19:36;3.13;;;1.60;;
21084;SDS011;34247;50.064;19.970;2023-05-10T02:20:44;2.33;;;2.15;;
21084;SDS011;34247;50.064;19.970;2023-05-10T02:21:50;2.47;;;1.90;;
21084;SDS011;34247;50.064;19.970;2023-05-10T02:22:55;2.72;;;2.53;;
21084;SDS011;34247;50.064;19.970;2023-05-10T02:24:01;2.25;;;1.92;;
21084;SDS011;34247;50.064;19.970;2023-05-10T02:25:07;3.05;;;1.85;;
21084;SDS011;34247;50.064;19.970;2023-05-10T02:26:16;2.42;;;1.88;;
21084;SDS011;34247;50.064;19.970;2023-05-10T02:27:23;1.80;;;1.70;;
21084;SDS011;34247;50.064;19.970;2023-05-10T02:28:30;2.10;;;1.90;;
21084;SDS011;34247;50.064;19.970;2023-05-10T02:29:36;1.98;;;1.73;;
21084;SDS011;34247;50.064;19.970;2023-05-10T02:30:42;4.30;;;2.00;;
21084;SDS011;34247;50.064;19.970;2023-05-10T02:31:47;2.60;;;2.38;;
21084;SDS011;34247;50.064;19.970;2023-05-10T02:32:52;1.85;;;1.75;;
21084;SDS011;34247;50.064;19.970;2023-05-10T02:33:56;2.67;;;2.05;;
21084;SDS011;34247;50.064;19.970;2023-05-10T02:35:02;5.05;;;2.20;;
21084;SDS011;34247;50.064;19.970;2023-05-10T02:36:11;4.30;;;2.05;;
21084;SDS011;34247;50.064;19.970;2023-05-10T02:37:18;3.40;;;2.35;;
21084;SDS011;34247;50.064;19.970;2023-05-10T02:38:24;4.03;;;2.13;;
21084;SDS011;34247;50.064;19.970;2023-05-10T02:39:31;2.05;;;1.95;;
21084;SDS011;34247;50.064;19.970;2023-05-10T02:40:36;7.75;;;2.92;;
21084;SDS011;34247;50.064;19.970;2023-05-10T02:41:41;2.15;;;2.03;;
21084;SDS011;34247;50.064;19.970;2023-05-10T02:42:48;2.17;;;2.08;;
21084;SDS011;34247;50.064;19.970;2023-05-10T02:43:59;2.30;;;2.10;;
21084;SDS011;34247;50.064;19.970;2023-05-10T02:45:11;1.98;;;1.88;;
21084;SDS011;34247;50.064;19.970;2023-05-10T02:46:21;4.13;;;2.75;;
21084;SDS011;34247;50.064;19.970;2023-05-10T02:47:27;3.42;;;2.45;;
21084;SDS011;34247;50.064;19.970;2023-05-10T02:48:32;3.67;;;2.33;;
21084;SDS011;34247;50.064;19.970;2023-05-10T02:49:36;2.03;;;1.88;;
21084;SDS011;34247;50.064;19.970;2023-05-10T02:50:41;2.33;;;1.92;;
21084;SDS011;34247;50.064;19.970;2023-05-10T02:51:50;3.42;;;2.30;;
21084;SDS011;34247;50.064;19.970;2023-05-10T02:53:05;4.28;;;2.28;;
21084;SDS011;34247;50.064;19.970;2023-05-10T02:54:20;3.22;;;2.10;;
21084;SDS011;34247;50.064;19.970;2023-05-10T02:55:35;2.08;;;1.88;;
21084;SDS011;34247;50.064;19.970;2023-05-10T02:56:50;1.88;;;1.77;;
21084;SDS011;34247;50.064;19.970;2023-05-10T02:58:01;3.15;;;2.30;;
21084;SDS011;34247;50.064;19.970;2023-05-10T02:59:07;2.05;;;1.65;;
21084;SDS011;34247;50.064;19.970;2023-05-10T03:00:11;3.47;;;1.83;;
21084;SDS011;34247;50.064;19.970;2023-05-10T03:01:16;4.20;;;2.22;;
21084;SDS011;34247;50.064;19.970;2023-05-10T03:02:20;2.58;;;2.15;;
21084;SDS011;34247;50.064;19.970;2023-05-10T03:03:24;6.03;;;2.38;;
21084;SDS011;34247;50.064;19.970;2023-05-10T03:04:28;4.80;;;2.47;;
21084;SDS011;34247;50.064;19.970;2023-05-10T03:05:32;2.05;;;1.95;;
21084;SDS011;34247;50.064;19.970;2023-05-10T03:06:35;4.40;;;1.98;;
21084;SDS011;34247;50.064;19.970;2023-05-10T03:07:39;2.88;;;2.30;;
21084;SDS011;34247;50.064;19.970;2023-05-10T03:08:44;2.80;;;2.10;;
21084;SDS011;34247;50.064;19.970;2023-05-10T03:09:49;2.75;;;2.20;;
21084;SDS011;34247;50.064;19.970;2023-05-10T03:11:08;2.10;;;1.95;;
21084;SDS011;34247;50.064;19.970;2023-05-10T03:16:15;6.20;;;2.42;;
21084;SDS011;34247;50.064;19.970;2023-05-10T03:17:47;2.80;;;2.40;;
21084;SDS011;34247;50.064;19.970;2023-05-10T03:19:06;3.05;;;1.70;;
21084;SDS011;34247;50.064;19.970;2023-05-10T03:20:49;2.40;;;2.20;;
21084;SDS011;34247;50.064;19.970;2023-05-10T03:21:59;2.05;;;1.92;;
21084;SDS011;34247;50.064;19.970;2023-05-10T03:24:51;2.10;;;2.00;;
21084;SDS011;34247;50.064;19.970;2023-05-10T03:26:00;2.65;;;2.15;;
21084;SDS011;34247;50.064;19.970;2023-05-10T03:27:08;5.60;;;2.22;;
21084;SDS011;34247;50.064;19.970;2023-05-10T03:28:16;2.88;;;2.53;;
21084;SDS011;34247;50.064;19.970;2023-05-10T03:29:23;2.40;;;2.28;;
21084;SDS011;34247;50.064;19.970;2023-05-10T03:30:30;2.85;;;2.30;;
21084;SDS011;34247;50.064;19.970;2023-05-10T03:31:36;2.92;;;2.22;;
21084;SDS011;34247;50.064;19.970;2023-05-10T03:32:42;3.03;;;2.42;;
21084;SDS011;34247;50.064;19.970;2023-05-10T03:33:46;1.90;;;1.80;;
21084;SDS011;34247;50.064;19.970;2023-05-10T03:34:54;3.85;;;2.28;;
21084;SDS011;34247;50.064;19.970;2023-05-10T03:35:58;2.25;;;2.00;;
21084;SDS011;34247;50.064;19.970;2023-05-10T03:37:02;2.13;;;1.90;;
21084;SDS011;34247;50.064;19.970;2023-05-10T03:38:07;2.70;;;2.10;;
21084;SDS011;34247;50.064;19.970;2023-05-10T03:39:11;2.95;;;1.92;;
21084;SDS011;34247;50.064;19.970;2023-05-10T03:40:15;2.45;;;2.25;;
21084;SDS011;34247;50.064;19.970;2023-05-10T03:41:20;3.65;;;2.13;;
21084;SDS011;34247;50.064;19.970;2023-05-10T03:42:24;2.13;;;1.95;;
21084;SDS011;34247;50.064;19.970;2023-05-10T03:43:28;2.85;;;2.25;;
21084;SDS011;34247;50.064;19.970;2023-05-10T03:44:31;2.65;;;2.03;;
21084;SDS011;34247;50.064;19.970;2023-05-10T03:45:36;2.25;;;2.05;;
21084;SDS011;34247;50.064;19.970;2023-05-10T03:46:40;2.53;;;1.88;;
21084;SDS011;34247;50.064;19.970;2023-05-10T03:47:44;2.33;;;1.75;;
21084;SDS011;34247;50.064;19.970;2023-05-10T03:48:48;3.85;;;1.80;;
21084;SDS011;34247;50.064;19.970;2023-05-10T03:49:52;2.65;;;2.08;;
21084;SDS011;34247;50.064;19.970;2023-05-10T03:50:56;3.42;;;2.05;;
21084;SDS011;34247;50.064;19.970;2023-05-10T03:52:03;2.45;;;2.22;;
21084;SDS011;34247;50.064;19.970;2023-05-10T03:53:10;1.80;;;1.70;;
21084;SDS011;34247;50.064;19.970;2023-05-10T03:54:15;2.42;;;2.13;;
21084;SDS011;34247;50.064;19.970;2023-05-10T03:55:19;2.55;;;2.35;;
21084;SDS011;34247;50.064;19.970;2023-05-10T03:56:24;2.03;;;1.90;;
21084;SDS011;34247;50.064;19.970;2023-05-10T03:57:27;1.98;;;1.80;;
21084;SDS011;34247;50.064;19.970;2023-05-10T03:58:31;2.88;;;2.20;;
21084;SDS011;34247;50.064;19.970;2023-05-10T03:59:35;2.33;;;2.17;;
21084;SDS011;34247;50.064;19.970;2023-05-10T04:00:39;1.95;;;1.70;;
21084;SDS011;34247;50.064;19.970;2023-05-10T04:01:48;3.90;;;2.55;;
21084;SDS011;34247;50.064;19.970;2023-05-10T04:02:52;2.53;;;2.15;;
21084;SDS011;34247;50.064;19.970;2023-05-10T04:03:57;6.30;;;2.85;;
21084;SDS011;34247;50.064;19.970;2023-05-10T04:05:01;2.67;;;2.47;;
21084;SDS011;34247;50.064;19.970;2023-05-10T04:06:06;5.95;;;2.30;;
21084;SDS011;34247;50.064;19.970;2023-05-10T04:07:12;2.72;;;2.25;;
21084;SDS011;34247;50.064;19.970;2023-05-10T04:08:15;2.22;;;1.98;;
21084;SDS011;34247;50.064;19.970;2023-05-10T04:09:20;2.78;;;2.58;;
21084;SDS011;34247;50.064;19.970;2023-05-10T04:10:23;2.88;;;2.67;;
21084;SDS011;34247;50.064;19.970;2023-05-10T04:11:27;4.43;;;3.05;;
21084;SDS011;34247;50.064;19.970;2023-05-10T04:12:30;3.42;;;2.47;;
21084;SDS011;34247;50.064;19.970;2023-05-10T04:13:34;2.80;;;2.53;;
21084;SDS011;34247;50.064;19.970;2023-05-10T04:14:39;5.45;;;2.78;;
21084;SDS011;34247;50.064;19.970;2023-05-10T04:15:42;7.28;;;2.90;;
21084;SDS011;34247;50.064;19.970;2023-05-10T04:16:46;4.20;;;1.98;;
21084;SDS011;34247;50.064;19.970;2023-05-10T04:17:50;2.30;;;2.10;;
21084;SDS011;34247;50.064;19.970;2023-05-10T04:18:54;2.65;;;2.42;;
21084;SDS011;34247;50.064;19.970;2023-05-10T04:19:58;5.03;;;2.42;;
21084;SDS011;34247;50.064;19.970;2023-05-10T04:21:02;5.00;;;2.13;;
21084;SDS011;34247;50.064;19.970;2023-05-10T04:22:06;4.95;;;2.60;;
21084;SDS011;34247;50.064;19.970;2023-05-10T04:23:09;3.25;;;2.47;;
21084;SDS011;34247;50.064;19.970;2023-05-10T04:24:13;3.10;;;2.88;;
21084;SDS011;34247;50.064;19.970;2023-05-10T04:25:17;1.77;;;1.67;;
21084;SDS011;34247;50.064;19.970;2023-05-10T04:26:22;2.00;;;1.85;;
21084;SDS011;34247;50.064;19.970;2023-05-10T04:27:26;1.75;;;1.65;;
21084;SDS011;34247;50.064;19.970;2023-05-10T04:28:30;4.03;;;2.13;;
21084;SDS011;34247;50.064;19.970;2023-05-10T04:29:34;2.78;;;2.58;;
21084;SDS011;34247;50.064;19.970;2023-05-10T04:30:39;4.03;;;2.30;;
21084;SDS011;34247;50.064;19.970;2023-05-10T04:31:43;2.53;;;2.33;;
21084;SDS011;34247;50.064;19.970;2023-05-10T04:32:47;4.75;;;2.22;;
21084;SDS011;34247;50.064;19.970;2023-05-10T04:33:52;3.13;;;2.25;;
21084;SDS011;34247;50.064;19.970;2023-05-10T04:34:56;2.05;;;1.85;;
21084;SDS011;34247;50.064;19.970;2023-05-10T04:36:01;1.90;;;1.80;;
21084;SDS011;34247;50.064;19.970;2023-05-10T04:37:06;1.67;;;1.58;;
21084;SDS011;34247;50.064;19.970;2023-05-10T04:38:12;4.80;;;2.08;;
21084;SDS011;34247;50.064;19.970;2023-05-10T04:39:16;4.30;;;2.25;;
21084;SDS011;34247;50.064;19.970;2023-05-10T04:40:20;4.32;;;2.38;;
21084;SDS011;34247;50.064;19.970;2023-05-10T04:41:24;2.88;;;2.50;;
21084;SDS011;34247;50.064;19.970;2023-05-10T04:42:28;2.97;;;2.10;;
21084;SDS011;34247;50.064;19.970;2023-05-10T04:43:32;3.33;;;2.33;;
21084;SDS011;34247;50.064;19.970;2023-05-10T04:44:36;2.00;;;1.90;;
21084;SDS011;34247;50.064;19.970;2023-05-10T04:45:40;2.72;;;2.22;;
21084;SDS011;34247;50.064;19.970;2023-05-10T04:46:44;7.15;;;2.30;;
21084;SDS011;34247;50.064;19.970;2023-05-10T04:47:48;2.72;;;2.40;;
21084;SDS011;34247;50.064;19.970;2023-05-10T04:48:53;2.85;;;2.22;;
21084;SDS011;34247;50.064;19.970;2023-05-10T04:49:57;2.85;;;2.35;;
21084;SDS011;34247;50.064;19.970;2023-05-10T04:51:01;5.95;;;2.47;;
21084;SDS011;34247;50.064;19.970;2023-05-10T04:52:10;2.60;;;2.33;;
21084;SDS011;34247;50.064;19.970;2023-05-10T04:53:14;4.63;;;2.33;;
21084;SDS011;34247;50.064;19.970;2023-05-10T04:54:18;3.15;;;2.58;;
21084;SDS011;34247;50.064;19.970;2023-05-10T04:55:23;2.28;;;2.13;;
21084;SDS011;34247;50.064;19.970;2023-05-10T04:56:27;4.47;;;3.03;;
21084;SDS011;34247;50.064;19.970;2023-05-10T04:57:31;1.92;;;1.80;;
21084;SDS011;34247;50.064;19.970;2023-05-10T04:58:35;8.75;;;2.22;;
21084;SDS011;34247;50.064;19.970;2023-05-10T04:59:39;2.83;;;2.25;;
21084;SDS011;34247;50.064;19.970;2023-05-10T05:00:45;5.95;;;2.42;;
21084;SDS011;34247;50.064;19.970;2023-05-10T05:01:50;2.63;;;2.40;;
21084;SDS011;34247;50.064;19.970;2023-05-10T05:02:54;5.82;;;2.03;;
21084;SDS011;34247;50.064;19.970;2023-05-10T05:03:59;4.88;;;2.88;;
21084;SDS011;34247;50.064;19.970;2023-05-10T05:05:07;3.33;;;2.67;;
21084;SDS011;34247;50.064;19.970;2023-05-10T05:06:12;3.70;;;2.17;;
21084;SDS011;34247;50.064;19.970;2023-05-10T05:07:16;2.35;;;2.15;;
21084;SDS011;34247;50.064;19.970;2023-05-10T05:08:23;4.05;;;2.47;;
21084;SDS011;34247;50.064;19.970;2023-05-10T05:09:27;3.65;;;2.70;;
21084;SDS011;34247;50.064;19.970;2023-05-10T05:10:30;2.22;;;2.05;;
21084;SDS011;34247;50.064;19.970;2023-05-10T05:11:34;5.75;;;2.58;;
21084;SDS011;34247;50.064;19.970;2023-05-10T05:12:38;3.58;;;3.28;;
21084;SDS011;34247;50.064;19.970;2023-05-10T05:13:42;3.33;;;2.50;;
21084;SDS011;34247;50.064;19.970;2023-05-10T05:14:46;8.23;;;2.10;;
21084;SDS011;34247;50.064;19.970;2023-05-10T05:15:50;4.82;;;2.55;;
21084;SDS011;34247;50.064;19.970;2023-05-10T05:16:54;3.88;;;2.63;;
21084;SDS011;34247;50.064;19.970;2023-05-10T05:17:58;3.15;;;2.13;;
21084;SDS011;34247;50.064;19.970;2023-05-10T05:19:02;2.75;;;2.20;;
21084;SDS011;34247;50.064;19.970;2023-05-10T05:20:08;1.85;;;1.70;;
21084;SDS011;34247;50.064;19.970;2023-05-10T05:21:13;2.65;;;2.42;;
21084;SDS011;34247;50.064;19.970;2023-05-10T05:22:19;2.45;;;1.80;;
21084;SDS011;34247;50.064;19.970;2023-05-10T05:23:29;4.95;;;2.13;;
21084;SDS011;34247;50.064;19.970;2023-05-10T05:24:36;7.85;;;2.42;;
21084;SDS011;34247;50.064;19.970;2023-05-10T05:25:41;6.97;;;2.90;;
21084;SDS011;34247;50.064;19.970;2023-05-10T05:26:45;4.20;;;2.38;;
21084;SDS011;34247;50.064;19.970;2023-05-10T05:27:48;3.13;;;2.42;;
21084;SDS011;34247;50.064;19.970;2023-05-10T05:28:52;8.35;;;2.40;;
21084;SDS011;34247;50.064;19.970;2023-05-10T05:29:58;7.72;;;2.45;;
21084;SDS011;34247;50.064;19.970;2023-05-10T05:31:06;2.90;;;2.45;;
21084;SDS011;34247;50.064;19.970;2023-05-10T05:32:10;5.65;;;2.50;;
21084;SDS011;34247;50.064;19.970;2023-05-10T05:33:15;2.75;;;2.05;;
21084;SDS011;34247;50.064;19.970;2023-05-10T05:34:19;3.00;;;2.33;;
21084;SDS011;34247;50.064;19.970;2023-05-10T05:35:24;9.75;;;3.35;;
21084;SDS011;34247;50.064;19.970;2023-05-10T05:36:28;5.43;;;2.45;;
21084;SDS011;34247;50.064;19.970;2023-05-10T05:37:34;6.05;;;3.22;;
21084;SDS011;34247;50.064;19.970;2023-05-10T05:38:38;3.47;;;2.30;;
21084;SDS011;34247;50.064;19.970;2023-05-10T05:39:42;3.92;;;2.17;;
21084;SDS011;34247;50.064;19.970;2023-05-10T05:40:46;3.65;;;2.15;;
21084;SDS011;34247;50.064;19.970;2023-05-10T05:41:50;6.95;;;2.65;;
21084;SDS011;34247;50.064;19.970;2023-05-10T05:42:54;2.80;;;1.98;;
21084;SDS011;34247;50.064;19.970;2023-05-10T05:43:58;2.60;;;1.88;;
21084;SDS011;34247;50.064;19.970;2023-05-10T05:45:02;3.55;;;2.67;;
21084;SDS011;34247;50.064;19.970;2023-05-10T05:46:12;5.40;;;2.15;;
21084;SDS011;34247;50.064;19.970;2023-05-10T05:47:16;4.07;;;2.20;;
21084;SDS011;34247;50.064;19.970;2023-05-10T05:48:21;5.90;;;2.92;;
21084;SDS011;34247;50.064;19.970;2023-05-10T05:49:25;10.00;;;2.65;;
21084;SDS011;34247;50.064;19.970;2023-05-10T05:50:29;3.45;;;2.20;;
21084;SDS011;34247;50.064;19.970;2023-05-10T05:51:33;9.20;;;2.40;;
21084;SDS011;34247;50.064;19.970;2023-05-10T05:52:38;4.55;;;2.45;;
21084;SDS011;34247;50.064;19.970;2023-05-10T05:53:42;3.50;;;2.10;;
21084;SDS011;34247;50.064;19.970;2023-05-10T05:54:46;4.57;;;2.05;;
21084;SDS011;34247;50.064;19.970;2023-05-10T05:55:51;3.92;;;2.13;;
21084;SDS011;34247;50.064;19.970;2023-05-10T05:56:59;8.43;;;2.65;;
21084;SDS011;34247;50.064;19.970;2023-05-10T05:58:06;3.03;;;1.92;;
21084;SDS011;34247;50.064;19.970;2023-05-10T05:59:10;10.05;;;2.95;;
21084;SDS011;34247;50.064;19.970;2023-05-10T06:00:14;9.15;;;2.25;;
21084;SDS011;34247;50.064;19.970;2023-05-10T06:01:19;9.38;;;2.33;;
21084;SDS011;34247;50.064;19.970;2023-05-10T06:02:24;9.98;;;2.42;;
21084;SDS011;34247;50.064;19.970;2023-05-10T06:03:28;4.68;;;2.50;;
21084;SDS011;34247;50.064;19.970;2023-05-10T06:04:32;2.60;;;1.98;;
21084;SDS011;34247;50.064;19.970;2023-05-10T06:05:36;8.60;;;2.30;;
21084;SDS011;34247;50.064;19.970;2023-05-10T06:06:40;2.80;;;2.00;;
21084;SDS011;34247;50.064;19.970;2023-05-10T06:07:45;1.73;;;1.63;;
21084;SDS011;34247;50.064;19.970;2023-05-10T06:08:49;6.28;;;2.15;;
21084;SDS011;34247;50.064;19.970;2023-05-10T06:09:56;3.78;;;2.05;;
21084;SDS011;34247;50.064;19.970;2023-05-10T06:11:00;7.05;;;2.10;;
21084;SDS011;34247;50.064;19.970;2023-05-10T06:12:07;5.45;;;1.95;;
21084;SDS011;34247;50.064;19.970;2023-05-10T06:13:13;3.03;;;2.30;;
21084;SDS011;34247;50.064;19.970;2023-05-10T06:14:17;7.97;;;2.13;;
21084;SDS011;34247;50.064;19.970;2023-05-10T06:15:24;4.15;;;1.95;;
21084;SDS011;34247;50.064;19.970;2023-05-10T06:16:28;4.18;;;2.05;;
21084;SDS011;34247;50.064;19.970;2023-05-10T06:17:32;2.35;;;2.15;;
21084;SDS011;34247;50.064;19.970;2023-05-10T06:18:36;2.17;;;1.98;;
21084;SDS011;34247;50.064;19.970;2023-05-10T06:19:40;4.60;;;1.30;;
21084;SDS011;34247;50.064;19.970;2023-05-10T06:20:44;4.22;;;1.80;;
21084;SDS011;34247;50.064;19.970;2023-05-10T06:21:48;2.17;;;1.73;;
21084;SDS011;34247;50.064;19.970;2023-05-10T06:22:55;7.97;;;1.95;;
21084;SDS011;34247;50.064;19.970;2023-05-10T06:23:59;7.13;;;2.60;;
21084;SDS011;34247;50.064;19.970;2023-05-10T06:25:03;2.10;;;1.90;;
21084;SDS011;34247;50.064;19.970;2023-05-10T06:26:08;2.95;;;1.92;;
21084;SDS011;34247;50.064;19.970;2023-05-10T06:27:12;1.60;;;1.50;;
21084;SDS011;34247;50.064;19.970;2023-05-10T06:28:17;2.25;;;1.73;;
21084;SDS011;34247;50.064;19.970;2023-05-10T06:29:21;1.52;;;1.33;;
21084;SDS011;34247;50.064;19.970;2023-05-10T06:30:25;2.35;;;1.67;;
21084;SDS011;34247;50.064;19.970;2023-05-10T06:31:32;4.03;;;2.03;;
21084;SDS011;34247;50.064;19.970;2023-05-10T06:32:36;1.77;;;1.20;;
21084;SDS011;34247;50.064;19.970;2023-05-10T06:33:40;8.80;;;1.50;;
21084;SDS011;34247;50.064;19.970;2023-05-10T06:34:47;4.07;;;1.77;;
21084;SDS011;34247;50.064;19.970;2023-05-10T06:35:51;1.48;;;1.38;;
21084;SDS011;34247;50.064;19.970;2023-05-10T06:36:56;1.63;;;1.27;;
21084;SDS011;34247;50.064;19.970;2023-05-10T06:38:01;5.07;;;1.20;;
21084;SDS011;34247;50.064;19.970;2023-05-10T06:39:07;3.33;;;1.40;;
21084;SDS011;34247;50.064;19.970;2023-05-10T06:40:14;7.20;;;2.65;;
21084;SDS011;34247;50.064;19.970;2023-05-10T06:41:19;4.88;;;1.55;;
21084;SDS011;34247;50.064;19.970;2023-05-10T06:42:27;2.95;;;1.63;;
21084;SDS011;34247;50.064;19.970;2023-05-10T06:43:31;3.28;;;1.67;;
21084;SDS011;34247;50.064;19.970;2023-05-10T06:44:35;2.88;;;2.05;;
21084;SDS011;34247;50.064;19.970;2023-05-10T06:45:40;3.85;;;2.00;;
21084;SDS011;34247;50.064;19.970;2023-05-10T06:46:44;5.95;;;1.90;;
21084;SDS011;34247;50.064;19.970;2023-05-10T06:47:48;4.50;;;1.35;;
21084;SDS011;34247;50.064;19.970;2023-05-10T06:48:52;1.45;;;1.10;;
21084;SDS011;34247;50.064;19.970;2023-05-10T06:49:56;2.47;;;1.67;;
21084;SDS011;34247;50.064;19.970;2023-05-10T06:51:00;6.28;;;1.10;;
21084;SDS011;34247;50.064;19.970;2023-05-10T06:52:04;1.70;;;1.30;;
21084;SDS011;34247;50.064;19.970;2023-05-10T06:53:12;6.28;;;1.52;;
21084;SDS011;34247;50.064;19.970;2023-05-10T06:54:16;3.47;;;1.90;;
21084;SDS011;34247;50.064;19.970;2023-05-10T06:55:20;3.10;;;1.88;;
21084;SDS011;34247;50.064;19.970;2023-05-10T06:56:24;3.95;;;1.48;;
21084;SDS011;34247;50.064;19.970;2023-05-10T06:57:29;3.33;;;1.20;;
21084;SDS011;34247;50.064;19.970;2023-05-10T06:58:34;1.38;;;1.20;;
21084;SDS011;34247;50.064;19.970;2023-05-10T06:59:39;3.47;;;1.60;;
21084;SDS011;34247;50.064;19.970;2023-05-10T07:00:44;2.15;;;1.10;;
21084;SDS011;34247;50.064;19.970;2023-05-10T07:01:52;1.92;;;1.30;;
21084;SDS011;34247;50.064;19.970;2023-05-10T07:02:56;1.98;;;1.42;;
21084;SDS011;34247;50.064;19.970;2023-05-10T07:04:02;2.65;;;1.50;;
21084;SDS011;34247;50.064;19.970;2023-05-10T07:05:06;1.20;;;1.10;;
21084;SDS011;34247;50.064;19.970;2023-05-10T07:06:13;2.45;;;1.45;;
21084;SDS011;34247;50.064;19.970;2023-05-10T07:07:34;2.28;;;1.17;;
21084;SDS011;34247;50.064;19.970;2023-05-10T07:08:38;2.58;;;1.10;;
21084;SDS011;34247;50.064;19.970;2023-05-10T07:09:42;8.10;;;2.03;;
21084;SDS011;34247;50.064;19.970;2023-05-10T07:10:46;2.95;;;1.42;;
21084;SDS011;34247;50.064;19.970;2023-05-10T07:11:50;1.52;;;1.33;;
21084;SDS011;34247;50.064;19.970;2023-05-10T07:12:54;1.60;;;1.20;;
21084;SDS011;34247;50.064;19.970;2023-05-10T07:13:58;3.50;;;1.35;;
21084;SDS011;34247;50.064;19.970;2023-05-10T07:15:02;4.40;;;1.77;;
21084;SDS011;34247;50.064;19.970;2023-05-10T07:16:07;4.07;;;1.83;;
21084;SDS011;34247;50.064;19.970;2023-05-10T07:17:11;1.38;;;0.98;;
21084;SDS011;34247;50.064;19.970;2023-05-10T07:18:15;6.07;;;1.50;;
21084;SDS011;34247;50.064;19.970;2023-05-10T07:19:19;1.75;;;1.23;;
21084;SDS011;34247;50.064;19.970;2023-05-10T07:20:23;2.55;;;2.08;;
21084;SDS011;34247;50.064;19.970;2023-05-10T07:21:27;3.08;;;1.38;;
21084;SDS011;34247;50.064;19.970;2023-05-10T07:22:31;2.03;;;1.58;;
21084;SDS011;34247;50.064;19.970;2023-05-10T07:23:35;1.67;;;1.08;;
21084;SDS011;34247;50.064;19.970;2023-05-10T07:24:39;1.45;;;1.10;;
21084;SDS011;34247;50.064;19.970;2023-05-10T07:25:47;4.60;;;1.50;;
21084;SDS011;34247;50.064;19.970;2023-05-10T07:26:54;1.20;;;1.02;;
21084;SDS011;34247;50.064;19.970;2023-05-10T07:27:57;2.25;;;1.17;;
21084;SDS011;34247;50.064;19.970;2023-05-10T07:29:02;1.60;;;1.25;;
21084;SDS011;34247;50.064;19.970;2023-05-10T07:30:06;1.13;;;1.00;;
21084;SDS011;34247;50.064;19.970;2023-05-10T07:31:11;1.02;;;0.95;;
21084;SDS011;34247;50.064;19.970;2023-05-10T07:32:15;2.22;;;1.38;;
21084;SDS011;34247;50.064;19.970;2023-05-10T07:33:22;1.60;;;0.90;;
21084;SDS011;34247;50.064;19.970;2023-05-10T07:34:27;3.83;;;1.95;;
21084;SDS011;34247;50.064;19.970;2023-05-10T07:35:32;2.00;;;1.20;;
21084;SDS011;34247;50.064;19.970;2023-05-10T07:36:36;1.75;;;1.60;;
21084;SDS011;34247;50.064;19.970;2023-05-10T07:37:40;1.17;;;1.08;;
21084;SDS011;34247;50.064;19.970;2023-05-10T07:38:44;1.63;;;1.40;;
21084;SDS011;34247;50.064;19.970;2023-05-10T07:39:49;3.42;;;1.00;;
21084;SDS011;34247;50.064;19.970;2023-05-10T07:40:52;1.73;;;1.45;;
21084;SDS011;34247;50.064;19.970;2023-05-10T07:41:57;1.98;;;1.20;;
21084;SDS011;34247;50.064;19.970;2023-05-10T07:43:04;2.35;;;1.45;;
21084;SDS011;34247;50.064;19.970;2023-05-10T07:44:11;1.67;;;1.20;;
21084;SDS011;34247;50.064;19.970;2023-05-10T07:45:15;2.95;;;1.52;;
21084;SDS011;34247;50.064;19.970;2023-05-10T07:46:19;3.72;;;1.83;;
21084;SDS011;34247;50.064;19.970;2023-05-10T07:47:23;3.20;;;1.52;;
21084;SDS011;34247;50.064;19.970;2023-05-10T07:48:28;3.58;;;1.45;;
21084;SDS011;34247;50.064;19.970;2023-05-10T07:49:31;3.97;;;1.48;;
21084;SDS011;34247;50.064;19.970;2023-05-10T07:50:35;2.65;;;1.23;;
21084;SDS011;34247;50.064;19.970;2023-05-10T07:51:40;4.25;;;1.45;;
21084;SDS011;34247;50.064;19.970;2023-05-10T07:52:45;6.30;;;1.10;;
21084;SDS011;34247;50.064;19.970;2023-05-10T07:53:49;1.80;;;1.17;;
21084;SDS011;34247;50.064;19.970;2023-05-10T07:54:53;2.13;;;1.33;;
21084;SDS011;34247;50.064;19.970;2023-05-10T07:55:57;1.38;;;0.95;;
21084;SDS011;34247;50.064;19.970;2023-05-10T07:57:02;6.75;;;1.42;;
21084;SDS011;34247;50.064;19.970;2023-05-10T07:58:06;1.90;;;1.00;;
21084;SDS011;34247;50.064;19.970;2023-05-10T07:59:10;2.63;;;1.63;;
21084;SDS011;34247;50.064;19.970;2023-05-10T08:00:19;2.42;;;1.58;;
21084;SDS011;34247;50.064;19.970;2023-05-10T08:01:23;1.65;;;1.17;;
21084;SDS011;34247;50.064;19.970;2023-05-10T08:02:27;1.42;;;1.13;;
21084;SDS011;34247;50.064;19.970;2023-05-10T08:03:31;2.80;;;1.40;;
21084;SDS011;34247;50.064;19.970;2023-05-10T08:04:36;1.80;;;1.33;;
21084;SDS011;34247;50.064;19.970;2023-05-10T08:05:40;1.90;;;1.30;;
21084;SDS011;34247;50.064;19.970;2023-05-10T08:06:44;2.25;;;1.30;;
21084;SDS011;34247;50.064;19.970;2023-05-10T08:07:48;1.13;;;1.02;;
21084;SDS011;34247;50.064;19.970;2023-05-10T08:08:52;1.20;;;1.10;;
21084;SDS011;34247;50.064;19.970;2023-05-10T08:09:57;1.13;;;0.85;;
21084;SDS011;34247;50.064;19.970;2023-05-10T08:11:01;1.88;;;1.02;;
21084;SDS011;34247;50.064;19.970;2023-05-10T08:12:07;2.03;;;1.33;;
21084;SDS011;34247;50.064;19.970;2023-05-10T08:13:11;2.38;;;1.20;;
21084;SDS011;34247;50.064;19.970;2023-05-10T08:14:15;3.72;;;1.02;;
21084;SDS011;34247;50.064;19.970;2023-05-10T08:15:22;1.85;;;1.20;;
21084;SDS011;34247;50.064;19.970;2023-05-10T08:16:26;6.10;;;0.82;;
21084;SDS011;34247;50.064;19.970;2023-05-10T08:17:30;4.22;;;1.30;;